Time;durP1;ratioP1;P1;durP2;ratioP2;P2;SDS_P1;SDS_P2;PMS_P1;PMS_P2;Temp;Humidity;BMP_temperature;BMP_pressure;BME280_temperature;BME280_humidity;BME280_pressure;Samples;Min_cycle;Max_cycle;Signal;HPM_P1;HPM_P2
2023/01/17 00:02:23;;;;;;;0.68;0.20;;;2.90;99.90;;;;;;5049787;28;20041;-82
2023/01/17 00:10:19;;;;;;;2.25;0.35;;;2.70;99.90;;;;;;5050511;28;20411;-82
2023/01/17 00:12:53;;;;;;;3.70;0.82;;;2.80;99.90;;;;;;5049719;28;20545;-82
2023/01/17 00:15:21;;;;;;;8.32;0.70;;;2.90;99.90;;;;;;5049926;28;20078;-81
2023/01/17 00:17:47;;;;;;;2.90;0.60;;;2.90;99.90;;;;;;5050269;28;20040;-82
2023/01/17 00:26:02;;;;;;;6.10;0.50;;;3.00;99.90;;;;;;5049618;28;20398;-82
2023/01/17 01:35:29;;;;;;;3.00;0.55;;;2.50;99.90;;;;;;5052213;28;20075;-82
2023/01/17 01:37:55;;;;;;;3.40;0.50;;;2.50;99.90;;;;;;5052200;28;20554;-82
2023/01/17 01:40:20;;;;;;;5.35;0.63;;;2.50;99.90;;;;;;5052315;28;20069;-82
2023/01/17 01:42:58;;;;;;;4.75;0.80;;;2.60;99.90;;;;;;5035498;28;20128;-82
2023/01/17 01:45:29;;;;;;;6.55;1.10;;;2.60;99.90;;;;;;5035865;28;20057;-83
2023/01/17 01:48:05;;;;;;;3.72;0.80;;;2.60;99.90;;;;;;5051810;28;20074;-82
2023/01/17 01:50:33;;;;;;;3.72;0.68;;;2.60;99.90;;;;;;5051996;28;20449;-82
2023/01/17 01:53:02;;;;;;;4.85;0.77;;;2.60;99.90;;;;;;5051449;28;20073;-82
2023/01/17 01:55:34;;;;;;;3.80;1.30;;;2.50;99.90;;;;;;5035018;28;20083;-82
2023/01/17 01:58:12;;;;;;;5.85;0.90;;;2.60;99.90;;;;;;5051657;28;20033;-81
2023/01/17 02:00:39;;;;;;;8.73;0.95;;;2.60;99.90;;;;;;5051946;28;20071;-82
2023/01/17 02:03:15;;;;;;;5.05;1.17;;;2.60;99.90;;;;;;5032005;28;20037;-83
2023/01/17 02:05:42;;;;;;;8.48;0.90;;;2.60;99.90;;;;;;5037524;28;20407;-82
2023/01/17 02:08:11;;;;;;;4.55;0.90;;;2.60;99.90;;;;;;5051405;28;20045;-82
2023/01/17 02:10:39;;;;;;;3.17;0.93;;;2.70;99.90;;;;;;5051297;28;20041;-83
2023/01/17 02:13:06;;;;;;;7.55;1.15;;;2.70;99.90;;;;;;5051373;28;20044;-83
2023/01/17 02:15:59;;;;;;;7.22;1.30;;;2.70;99.90;;;;;;5034753;28;20049;-82
2023/01/17 02:18:52;;;;;;;4.93;0.85;;;2.70;99.90;;;;;;5050775;28;20052;-83
2023/01/17 02:21:31;;;;;;;6.88;0.82;;;2.60;99.90;;;;;;5049694;28;20056;-82
2023/01/17 02:24:02;;;;;;;5.63;0.90;;;2.60;99.90;;;;;;5034541;28;20037;-83
2023/01/17 02:27:03;;;;;;;6.85;0.93;;;2.60;99.90;;;;;;5051251;28;20414;-82
2023/01/17 02:29:40;;;;;;;5.47;0.70;;;2.50;99.90;;;;;;5000823;28;20458;-82
2023/01/17 02:32:32;;;;;;;10.57;0.90;;;2.50;99.90;;;;;;5051274;28;20056;-82
2023/01/17 02:35:12;;;;;;;5.97;1.20;;;2.50;99.90;;;;;;5051016;28;20049;-83
2023/01/17 02:37:53;;;;;;;8.13;1.05;;;2.50;99.90;;;;;;5050763;28;20043;-83
2023/01/17 02:40:31;;;;;;;7.03;0.70;;;2.60;99.90;;;;;;5051107;28;20033;-82
2023/01/17 02:43:01;;;;;;;3.10;1.15;;;2.60;99.90;;;;;;5050875;28;20095;-82
2023/01/17 02:45:27;;;;;;;7.57;0.88;;;2.70;99.90;;;;;;5034100;28;20045;-82
2023/01/17 02:47:53;;;;;;;7.93;0.70;;;2.80;99.90;;;;;;5050492;28;20033;-82
2023/01/17 02:50:25;;;;;;;8.18;1.65;;;2.80;99.90;;;;;;5050518;28;20032;-83
2023/01/17 02:53:22;;;;;;;5.40;1.10;;;2.80;99.90;;;;;;5050312;28;20045;-82
2023/01/17 02:56:13;;;;;;;9.85;1.20;;;2.90;99.90;;;;;;5033738;28;20041;-82
2023/01/17 02:58:50;;;;;;;10.25;1.20;;;2.90;99.90;;;;;;5050791;28;20049;-83
2023/01/17 03:02:00;;;;;;;3.17;0.57;;;3.00;99.90;;;;;;5050588;28;20060;-81
2023/01/17 03:04:42;;;;;;;6.32;0.90;;;3.00;99.90;;;;;;4993271;28;20069;-84
2023/01/17 03:07:16;;;;;;;8.63;0.90;;;2.70;99.90;;;;;;5028227;28;20491;-82
2023/01/17 03:09:44;;;;;;;5.47;0.60;;;2.50;99.90;;;;;;5033762;28;20064;-82
2023/01/17 03:12:11;;;;;;;3.90;0.57;;;2.40;99.90;;;;;;5050498;28;20041;-82
2023/01/17 03:14:36;;;;;;;2.40;0.60;;;2.30;99.90;;;;;;5050260;28;20060;-82
2023/01/17 03:17:02;;;;;;;9.15;1.27;;;2.20;99.90;;;;;;5050636;28;20075;-82
2023/01/17 03:19:28;;;;;;;7.05;0.77;;;2.20;99.90;;;;;;5033869;28;20037;-82
2023/01/17 03:21:54;;;;;;;3.70;0.90;;;2.20;99.90;;;;;;5050442;28;20033;-82
2023/01/17 03:24:19;;;;;;;6.63;1.05;;;2.30;99.90;;;;;;5050370;28;20044;-82
2023/01/17 03:26:46;;;;;;;7.82;1.13;;;2.30;99.90;;;;;;5050472;28;20051;-83
2023/01/17 03:29:12;;;;;;;3.28;0.70;;;2.40;99.90;;;;;;5050042;28;20052;-82
2023/01/17 03:31:38;;;;;;;3.88;0.70;;;2.40;99.90;;;;;;5050238;28;20466;-82
2023/01/17 03:34:04;;;;;;;7.05;0.82;;;2.40;99.90;;;;;;5050387;28;20233;-82
2023/01/17 03:36:29;;;;;;;7.28;1.13;;;2.50;99.90;;;;;;5049751;28;20120;-83
2023/01/17 03:38:55;;;;;;;6.05;0.93;;;2.60;99.90;;;;;;5048534;28;20040;-83
2023/01/17 03:41:20;;;;;;;7.75;1.00;;;2.50;99.90;;;;;;5048998;28;20041;-82
2023/01/17 03:43:46;;;;;;;5.30;0.70;;;2.60;99.90;;;;;;5033582;28;20372;-82
2023/01/17 03:46:24;;;;;;;5.78;0.75;;;2.60;99.90;;;;;;5033769;28;20040;-82
2023/01/17 03:48:50;;;;;;;5.20;0.80;;;2.60;99.90;;;;;;5033486;28;20048;-81
2023/01/17 03:51:16;;;;;;;5.68;0.88;;;2.70;99.90;;;;;;5049864;28;20124;-82
2023/01/17 03:53:42;;;;;;;6.47;0.95;;;2.70;99.90;;;;;;5049963;28;20076;-82
2023/01/17 03:56:08;;;;;;;4.30;0.82;;;2.70;99.90;;;;;;5031822;28;20119;-82
2023/01/17 03:58:33;;;;;;;5.63;1.70;;;2.80;99.90;;;;;;5049603;28;20560;-82
2023/01/17 04:00:59;;;;;;;5.32;0.80;;;2.80;99.90;;;;;;5050113;28;20048;-82
2023/01/17 04:03:25;;;;;;;5.10;0.90;;;2.80;99.90;;;;;;5050178;28;20033;-82
2023/01/17 04:05:50;;;;;;;5.15;0.85;;;2.70;99.90;;;;;;5049685;28;20037;-82
2023/01/17 04:08:17;;;;;;;8.55;0.85;;;2.70;99.90;;;;;;5049487;28;20053;-82
2023/01/17 04:10:42;;;;;;;3.72;0.77;;;2.70;99.90;;;;;;5049584;28;20045;-83
2023/01/17 04:13:08;;;;;;;1.88;0.55;;;2.60;99.90;;;;;;5033386;28;20052;-82
2023/01/17 04:15:34;;;;;;;5.78;0.93;;;2.50;99.90;;;;;;5052183;28;20041;-81
2023/01/17 04:18:00;;;;;;;10.30;1.00;;;2.40;99.90;;;;;;5053678;28;20040;-82
2023/01/17 04:20:34;;;;;;;5.40;1.13;;;2.30;99.90;;;;;;5053352;28;20044;-82
2023/01/17 04:22:59;;;;;;;4.65;0.70;;;2.20;99.90;;;;;;5053456;28;20037;-82
2023/01/17 04:25:25;;;;;;;6.22;0.93;;;2.10;99.90;;;;;;5053340;28;20144;-82
2023/01/17 04:27:52;;;;;;;4.05;0.85;;;2.10;99.90;;;;;;5053153;28;20037;-82
2023/01/17 04:30:17;;;;;;;5.80;1.05;;;2.20;99.90;;;;;;5053567;28;20045;-82
2023/01/17 04:32:44;;;;;;;8.02;1.63;;;2.10;99.90;;;;;;5053375;28;20048;-82
2023/01/17 04:35:09;;;;;;;6.10;1.05;;;2.20;99.90;;;;;;5036456;28;20037;-82
2023/01/17 04:37:35;;;;;;;2.65;0.52;;;2.30;99.90;;;;;;5052837;28;20406;-83
2023/01/17 04:40:02;;;;;;;5.53;1.02;;;2.30;99.90;;;;;;5053056;28;20543;-83
2023/01/17 04:42:27;;;;;;;5.97;0.93;;;2.30;99.90;;;;;;5052907;28;20041;-82
2023/01/17 04:44:53;;;;;;;3.83;1.13;;;2.30;99.90;;;;;;5053092;28;20041;-82
2023/01/17 04:47:18;;;;;;;4.78;0.70;;;2.30;99.90;;;;;;5052981;28;20051;-82
2023/01/17 04:49:44;;;;;;;5.75;0.98;;;2.30;99.90;;;;;;5052590;28;20041;-82
2023/01/17 04:52:09;;;;;;;9.00;0.90;;;2.30;99.90;;;;;;5036066;28;20040;-82
2023/01/17 04:54:35;;;;;;;4.40;0.60;;;2.30;99.90;;;;;;5052717;28;20036;-82
2023/01/17 04:57:00;;;;;;;6.40;0.68;;;2.40;99.90;;;;;;5051592;28;20052;-82
2023/01/17 04:59:26;;;;;;;1.55;0.40;;;2.30;99.90;;;;;;5052480;28;20040;-83
2023/01/17 05:01:51;;;;;;;3.95;0.63;;;2.30;99.90;;;;;;5053081;28;20084;-82
2023/01/17 05:04:17;;;;;;;2.22;0.60;;;2.20;99.90;;;;;;5052824;28;20123;-83
2023/01/17 05:06:43;;;;;;;2.80;0.47;;;2.10;99.90;;;;;;5052892;28;20502;-82
2023/01/17 05:09:09;;;;;;;2.22;0.43;;;1.90;99.90;;;;;;5052399;28;20056;-82
2023/01/17 05:11:34;;;;;;;3.70;0.80;;;1.90;99.90;;;;;;5052266;28;20121;-82
2023/01/17 05:14:00;;;;;;;4.85;0.70;;;1.80;99.90;;;;;;5052733;28;20051;-82
2023/01/17 05:16:26;;;;;;;3.22;0.60;;;1.70;99.90;;;;;;5052248;28;20037;-82
2023/01/17 05:18:52;;;;;;;6.00;0.60;;;1.70;99.90;;;;;;5052450;28;20082;-83
2023/01/17 05:21:19;;;;;;;1.53;0.50;;;1.70;99.90;;;;;;5052299;28;20526;-82
2023/01/17 05:23:45;;;;;;;4.93;0.57;;;1.70;99.90;;;;;;5052128;28;20037;-82
2023/01/17 05:26:10;;;;;;;4.07;1.25;;;1.60;99.90;;;;;;5034047;28;20411;-83
2023/01/17 05:28:36;;;;;;;3.80;0.47;;;1.60;99.90;;;;;;5051812;28;20041;-81
2023/01/17 05:31:01;;;;;;;6.60;0.70;;;1.60;99.90;;;;;;5051124;28;20048;-82
2023/01/17 05:33:27;;;;;;;4.00;0.60;;;1.60;99.90;;;;;;5052021;28;20395;-81
2023/01/17 05:35:52;;;;;;;7.80;1.08;;;1.70;99.90;;;;;;5052068;28;20071;-82
2023/01/17 05:38:18;;;;;;;4.78;0.70;;;1.70;99.90;;;;;;5035218;28;20029;-82
2023/01/17 05:40:43;;;;;;;3.23;0.60;;;1.70;99.90;;;;;;5035406;28;20088;-82
2023/01/17 05:43:09;;;;;;;2.27;0.70;;;1.70;99.90;;;;;;5035316;28;20072;-82
2023/01/17 05:45:34;;;;;;;4.35;1.00;;;1.60;99.90;;;;;;5052136;28;20084;-82
2023/01/17 05:48:01;;;;;;;2.88;0.60;;;1.60;99.90;;;;;;5035069;28;20037;-82
2023/01/17 05:50:29;;;;;;;3.13;0.47;;;1.60;99.90;;;;;;5051797;28;20045;-82
2023/01/17 05:52:58;;;;;;;6.50;1.08;;;1.60;99.90;;;;;;5035092;28;20056;-82
2023/01/17 05:55:25;;;;;;;3.47;0.60;;;1.60;99.90;;;;;;5051446;28;20048;-82
2023/01/17 05:57:51;;;;;;;5.87;0.80;;;1.50;99.90;;;;;;5051542;28;20032;-81
2023/01/17 06:00:18;;;;;;;3.87;1.33;;;1.50;99.90;;;;;;5044445;28;20033;-82
2023/01/17 06:02:44;;;;;;;5.63;0.90;;;1.50;99.90;;;;;;5034226;28;20041;-82
2023/01/17 06:05:10;;;;;;;4.87;0.70;;;1.40;99.90;;;;;;5051578;28;20044;-83
2023/01/17 06:07:36;;;;;;;8.07;0.90;;;1.30;99.90;;;;;;5051142;28;20041;-82
2023/01/17 06:10:02;;;;;;;8.07;0.77;;;1.30;99.90;;;;;;5051764;28;20128;-82
2023/01/17 06:12:28;;;;;;;2.93;0.60;;;1.20;99.90;;;;;;5051193;28;20086;-81
2023/01/17 06:14:53;;;;;;;4.20;1.10;;;1.20;99.90;;;;;;5051340;28;20037;-81
2023/01/17 06:17:19;;;;;;;5.37;1.10;;;1.10;99.90;;;;;;5051813;28;20033;-82
2023/01/17 06:19:44;;;;;;;5.83;0.70;;;1.10;99.90;;;;;;5051463;28;20112;-81
2023/01/17 06:22:10;;;;;;;5.30;0.93;;;1.00;99.90;;;;;;5051187;28;20037;-82
2023/01/17 06:24:36;;;;;;;3.93;0.60;;;1.00;99.90;;;;;;5051394;28;20043;-81
2023/01/17 06:27:01;;;;;;;5.57;1.17;;;0.90;99.90;;;;;;5050430;28;20076;-81
2023/01/17 06:29:27;;;;;;;1.93;0.50;;;0.90;99.90;;;;;;5050905;28;20068;-82
2023/01/17 06:31:52;;;;;;;6.10;0.90;;;0.90;99.90;;;;;;5050974;28;20451;-82
2023/01/17 06:34:18;;;;;;;4.93;0.63;;;0.90;99.90;;;;;;5034320;28;20037;-82
2023/01/17 06:36:43;;;;;;;5.43;0.63;;;0.80;99.90;;;;;;5033370;28;20067;-82
2023/01/17 06:39:09;;;;;;;6.97;0.70;;;0.80;99.90;;;;;;5036869;28;20483;-82
2023/01/17 06:41:35;;;;;;;6.23;0.70;;;0.80;99.90;;;;;;5039458;28;20025;-82
2023/01/17 06:44:01;;;;;;;2.93;0.70;;;0.80;99.90;;;;;;5034110;28;20428;-82
2023/01/17 06:46:26;;;;;;;5.67;0.77;;;0.80;99.90;;;;;;5050709;28;20047;-82
2023/01/17 06:48:52;;;;;;;3.13;0.67;;;0.80;99.90;;;;;;5050357;28;20040;-82
2023/01/17 06:51:17;;;;;;;4.77;0.60;;;0.80;99.90;;;;;;5034118;28;20094;-82
2023/01/17 06:53:43;;;;;;;5.17;0.60;;;0.70;99.90;;;;;;5030343;28;20453;-83
2023/01/17 06:56:08;;;;;;;5.50;0.97;;;0.70;99.90;;;;;;5030072;28;20034;-82
2023/01/17 06:58:35;;;;;;;2.50;0.73;;;0.60;99.90;;;;;;5030377;28;20513;-83
2023/01/17 07:01:11;;;;;;;3.40;0.67;;;0.70;99.90;;;;;;5030501;28;20041;-83
2023/01/17 07:03:37;;;;;;;2.80;0.70;;;0.70;99.90;;;;;;5049526;28;20039;-83
2023/01/17 07:06:04;;;;;;;3.40;0.47;;;0.70;99.90;;;;;;5049395;28;20045;-83
2023/01/17 07:08:30;;;;;;;9.77;1.10;;;0.60;99.90;;;;;;5045490;28;20056;-83
2023/01/17 07:11:01;;;;;;;2.23;0.57;;;0.60;99.90;;;;;;5031815;28;20068;-83
2023/01/17 07:13:27;;;;;;;4.27;0.70;;;0.60;99.90;;;;;;5044813;28;20080;-83
2023/01/17 07:15:53;;;;;;;3.33;0.77;;;0.60;99.90;;;;;;5029545;28;20046;-83
2023/01/17 07:18:22;;;;;;;3.77;0.60;;;0.60;99.90;;;;;;5029638;28;20063;-84
2023/01/17 07:20:51;;;;;;;2.97;0.50;;;0.60;99.90;;;;;;5030150;28;20411;-84
2023/01/17 07:23:18;;;;;;;4.23;0.67;;;0.60;99.90;;;;;;5029669;28;20117;-84
2023/01/17 07:25:50;;;;;;;5.07;0.60;;;0.60;99.90;;;;;;5035470;28;20096;-83
2023/01/17 07:28:16;;;;;;;2.83;0.70;;;0.60;99.90;;;;;;5029954;28;20041;-84
2023/01/17 07:30:42;;;;;;;3.77;0.70;;;0.60;99.90;;;;;;5033407;28;20052;-84
2023/01/17 07:33:08;;;;;;;3.40;0.60;;;0.60;99.90;;;;;;5050842;28;20410;-84
2023/01/17 07:35:35;;;;;;;2.00;0.50;;;0.60;99.90;;;;;;5022226;28;20033;-84
2023/01/17 07:38:00;;;;;;;5.47;0.60;;;0.60;99.90;;;;;;5049272;28;20118;-84
2023/01/17 07:40:26;;;;;;;2.77;0.70;;;0.60;99.90;;;;;;5031518;28;20042;-84
2023/01/17 07:42:51;;;;;;;5.23;0.60;;;0.60;99.90;;;;;;5029514;28;20038;-84
2023/01/17 07:45:17;;;;;;;2.77;0.53;;;0.60;99.90;;;;;;5034199;28;20102;-84
2023/01/17 07:47:43;;;;;;;2.53;0.60;;;0.60;99.90;;;;;;5033121;28;20395;-84
2023/01/17 07:50:09;;;;;;;2.33;0.50;;;0.60;99.90;;;;;;5051920;28;20047;-84
2023/01/17 07:52:34;;;;;;;3.90;0.67;;;0.60;99.90;;;;;;5054271;28;20045;-84
2023/01/17 07:55:00;;;;;;;2.50;0.50;;;0.50;99.90;;;;;;5053798;28;20055;-86
2023/01/17 07:57:26;;;;;;;6.33;0.70;;;0.50;99.90;;;;;;5053957;28;20041;-85
2023/01/17 07:59:51;;;;;;;3.57;0.50;;;0.60;99.90;;;;;;5054163;28;20033;-84
2023/01/17 08:02:22;;;;;;;3.67;0.67;;;0.60;99.90;;;;;;5037165;28;20094;-84
2023/01/17 08:04:48;;;;;;;2.83;0.83;;;0.60;99.90;;;;;;5053803;28;20537;-83
2023/01/17 08:07:15;;;;;;;1.63;0.50;;;0.60;99.90;;;;;;5053653;28;20529;-84
2023/01/17 08:09:41;;;;;;;1.97;0.90;;;0.60;99.90;;;;;;5053871;28;20040;-84
2023/01/17 08:12:08;;;;;;;3.17;0.77;;;0.60;99.90;;;;;;5036801;28;20036;-84
2023/01/17 08:14:33;;;;;;;2.13;0.60;;;0.70;99.90;;;;;;5053683;28;20071;-84
2023/01/17 08:17:06;;;;;;;3.87;0.70;;;0.70;99.90;;;;;;5053455;28;20092;-84
2023/01/17 08:19:32;;;;;;;5.82;0.77;;;0.70;99.90;;;;;;5036616;28;20033;-84
2023/01/17 08:21:57;;;;;;;4.00;0.90;;;0.80;99.90;;;;;;5056780;28;20407;-85
2023/01/17 08:24:23;;;;;;;4.47;0.90;;;0.80;99.90;;;;;;5036758;28;20095;-85
2023/01/17 08:26:48;;;;;;;2.40;0.70;;;0.90;99.90;;;;;;5053466;28;20131;-85
2023/01/17 08:29:14;;;;;;;5.20;1.00;;;0.90;99.90;;;;;;5036628;28;20452;-84
2023/01/17 08:31:39;;;;;;;5.87;1.00;;;0.90;99.90;;;;;;5053570;28;20049;-84
2023/01/17 08:34:05;;;;;;;3.23;0.70;;;0.90;99.90;;;;;;5036599;28;20406;-84
2023/01/17 08:36:31;;;;;;;4.53;0.93;;;0.90;99.90;;;;;;5053078;28;20500;-84
2023/01/17 08:38:56;;;;;;;6.47;1.10;;;0.90;99.90;;;;;;5052780;28;20515;-85
2023/01/17 08:41:23;;;;;;;6.03;1.03;;;1.00;99.90;;;;;;5036898;28;20107;-84
2023/01/17 08:43:50;;;;;;;2.13;0.50;;;1.00;99.90;;;;;;5053031;28;20119;-84
2023/01/17 08:46:16;;;;;;;4.20;0.70;;;1.00;99.90;;;;;;5036213;28;20041;-84
2023/01/17 08:48:42;;;;;;;2.60;0.80;;;1.00;99.90;;;;;;5052755;28;20131;-85
2023/01/17 08:51:08;;;;;;;2.00;0.70;;;1.00;99.90;;;;;;5036322;28;20039;-84
2023/01/17 08:53:34;;;;;;;6.53;0.87;;;1.00;99.90;;;;;;5052802;28;20040;-84
2023/01/17 08:56:01;;;;;;;2.70;1.23;;;1.10;99.90;;;;;;5036275;28;20518;-85
2023/01/17 08:58:27;;;;;;;1.77;0.40;;;1.10;99.90;;;;;;5039188;28;20080;-84
2023/01/17 09:00:53;;;;;;;2.87;0.77;;;1.10;99.90;;;;;;5035860;28;20032;-84
2023/01/17 09:03:19;;;;;;;3.37;0.70;;;1.20;99.90;;;;;;5047469;28;20499;-85
2023/01/17 09:05:44;;;;;;;2.50;0.80;;;1.20;99.90;;;;;;5033534;28;20102;-85
2023/01/17 09:08:10;;;;;;;2.50;0.70;;;1.30;99.90;;;;;;5022637;28;20090;-85
2023/01/17 09:10:35;;;;;;;2.87;0.80;;;1.30;99.90;;;;;;5052673;28;20088;-85
2023/01/17 09:13:04;;;;;;;1.80;0.70;;;1.60;99.90;;;;;;5035601;28;20045;-85
2023/01/17 09:15:29;;;;;;;2.60;0.90;;;1.40;99.90;;;;;;5035562;28;20037;-85
2023/01/17 09:17:55;;;;;;;2.67;0.60;;;1.40;99.90;;;;;;5052122;28;20051;-85
2023/01/17 09:20:22;;;;;;;2.30;0.67;;;1.40;99.90;;;;;;5035549;28;20124;-85
2023/01/17 09:22:48;;;;;;;3.10;0.70;;;1.40;99.90;;;;;;5035571;28;20422;-85
2023/01/17 09:25:14;;;;;;;5.27;0.97;;;1.50;99.90;;;;;;5051996;28;20045;-84
2023/01/17 09:27:43;;;;;;;2.50;0.70;;;1.60;99.90;;;;;;5051960;28;20037;-84
2023/01/17 09:30:09;;;;;;;2.53;0.60;;;1.60;99.90;;;;;;5034926;28;20492;-85
2023/01/17 09:32:34;;;;;;;2.43;0.70;;;1.70;99.90;;;;;;5035316;28;20491;-84
2023/01/17 09:35:00;;;;;;;3.47;0.90;;;1.70;99.90;;;;;;5052078;28;20044;-85
2023/01/17 09:37:26;;;;;;;3.17;0.70;;;1.80;99.90;;;;;;5039903;28;20040;-84
2023/01/17 09:39:51;;;;;;;5.33;0.80;;;1.90;99.90;;;;;;5033832;28;20092;-85
2023/01/17 09:42:31;;;;;;;2.00;0.90;;;2.00;99.90;;;;;;5031364;28;20044;-84
2023/01/17 09:44:57;;;;;;;4.93;0.93;;;2.30;99.90;;;;;;5049074;28;20037;-84
2023/01/17 09:47:45;;;;;;;5.82;1.00;;;2.40;99.90;;;;;;5034669;28;20459;-84
2023/01/17 09:50:30;;;;;;;2.60;0.67;;;2.50;99.90;;;;;;5051259;28;20075;-84
2023/01/17 09:53:01;;;;;;;2.50;0.90;;;2.60;99.90;;;;;;5039822;28;20553;-83
2023/01/17 09:55:41;;;;;;;3.75;0.77;;;2.70;99.90;;;;;;5030755;28;20042;-84
2023/01/17 09:58:34;;;;;;;2.25;0.57;;;2.70;99.90;;;;;;5041429;28;20402;-84
2023/01/17 10:01:27;;;;;;;2.13;0.63;;;2.60;99.90;;;;;;5033772;28;20087;-84
2023/01/17 10:04:28;;;;;;;1.95;0.85;;;2.60;99.90;;;;;;5025121;28;20506;-83
2023/01/17 10:07:23;;;;;;;3.05;0.70;;;2.50;99.90;;;;;;5048116;28;20037;-83
2023/01/17 10:10:16;;;;;;;3.80;0.80;;;2.50;99.90;;;;;;5050256;28;20049;-83
2023/01/17 10:12:56;;;;;;;2.38;0.70;;;2.60;99.90;;;;;;5050229;28;20041;-83
2023/01/17 10:15:28;;;;;;;2.67;0.60;;;2.70;99.90;;;;;;5036855;28;20049;-83
2023/01/17 10:18:15;;;;;;;2.65;0.50;;;3.00;99.90;;;;;;5048637;28;20494;-83
2023/01/17 10:20:52;;;;;;;2.58;0.70;;;3.00;99.90;;;;;;5050616;28;20033;-84
2023/01/17 10:23:39;;;;;;;6.95;0.63;;;3.10;99.90;;;;;;5028177;28;20087;-83
2023/01/17 10:26:13;;;;;;;3.70;0.80;;;3.10;99.90;;;;;;5044123;28;20388;-83
2023/01/17 10:28:47;;;;;;;2.80;0.60;;;3.20;99.90;;;;;;5032479;28;20090;-83
2023/01/17 10:31:24;;;;;;;2.83;0.93;;;3.20;99.90;;;;;;5031712;28;20506;-83
2023/01/17 10:34:02;;;;;;;3.80;1.00;;;3.30;99.90;;;;;;5049043;28;20071;-83
2023/01/17 10:36:39;;;;;;;3.42;0.95;;;3.30;99.90;;;;;;5034132;28;20095;-83
2023/01/17 10:39:19;;;;;;;1.58;0.70;;;3.40;99.90;;;;;;5050630;28;20079;-83
2023/01/17 10:41:54;;;;;;;6.13;1.95;;;3.40;99.90;;;;;;5034288;28;20036;-83
2023/01/17 10:44:40;;;;;;;2.42;0.55;;;3.40;99.90;;;;;;5049807;28;20033;-83
2023/01/17 10:47:09;;;;;;;2.70;0.80;;;3.50;99.90;;;;;;5032977;28;20047;-83
2023/01/17 10:49:44;;;;;;;2.35;0.80;;;3.50;99.90;;;;;;5050441;28;20045;-83
2023/01/17 10:52:32;;;;;;;4.45;0.80;;;3.50;99.90;;;;;;5050482;28;20028;-83
2023/01/17 10:55:09;;;;;;;1.55;0.47;;;3.60;99.90;;;;;;5050925;28;20049;-83
2023/01/17 10:57:46;;;;;;;3.08;0.63;;;3.60;99.90;;;;;;5050220;28;20036;-83
2023/01/17 11:00:38;;;;;;;2.65;0.60;;;3.70;99.90;;;;;;5033836;28;20515;-83
2023/01/17 11:03:04;;;;;;;4.10;0.77;;;3.70;99.90;;;;;;5033291;28;20033;-84
2023/01/17 11:05:32;;;;;;;3.88;0.90;;;3.80;99.90;;;;;;5050311;28;20120;-84
2023/01/17 11:07:57;;;;;;;6.20;2.17;;;3.90;99.90;;;;;;5049537;28;20045;-83
2023/01/17 11:10:52;;;;;;;3.60;0.85;;;3.90;99.90;;;;;;5050303;28;20502;-83
2023/01/17 11:13:27;;;;;;;3.08;1.20;;;4.00;99.90;;;;;;5048438;28;20118;-83
2023/01/17 11:15:56;;;;;;;3.58;1.20;;;4.10;99.90;;;;;;5050292;28;20049;-83
2023/01/17 11:18:28;;;;;;;4.85;0.70;;;4.10;99.90;;;;;;5033316;28;20120;-83
2023/01/17 11:21:10;;;;;;;3.33;0.90;;;4.00;99.90;;;;;;5050350;28;20045;-83
2023/01/17 11:23:36;;;;;;;4.25;0.90;;;4.20;99.90;;;;;;5050084;28;20037;-84
2023/01/17 11:26:06;;;;;;;3.15;0.80;;;4.30;99.90;;;;;;5050013;28;20045;-84
2023/01/17 11:28:39;;;;;;;3.75;1.02;;;4.30;99.90;;;;;;5049952;28;20037;-83
2023/01/17 11:31:22;;;;;;;3.17;1.13;;;4.30;99.90;;;;;;5050276;28;20438;-83
2023/01/17 11:33:54;;;;;;;4.78;1.48;;;4.30;99.90;;;;;;5050374;28;20037;-83
2023/01/17 11:36:29;;;;;;;2.80;1.02;;;4.30;99.90;;;;;;5049760;28;20052;-83
2023/01/17 11:39:04;;;;;;;2.90;1.08;;;4.50;99.90;;;;;;5033027;28;20087;-83
2023/01/17 11:41:38;;;;;;;3.90;1.00;;;4.40;99.90;;;;;;5049166;28;20040;-83
2023/01/17 11:44:34;;;;;;;5.03;1.30;;;4.40;99.90;;;;;;5048927;28;20043;-83
2023/01/17 11:47:11;;;;;;;3.88;1.25;;;4.40;99.90;;;;;;5038028;28;20406;-83
2023/01/17 11:49:48;;;;;;;3.47;1.23;;;4.30;99.90;;;;;;5049501;28;20075;-83
2023/01/17 11:52:30;;;;;;;6.22;1.23;;;4.40;99.90;;;;;;5050202;28;20437;-84
2023/01/17 11:54:56;;;;;;;3.22;1.10;;;4.50;99.90;;;;;;5050032;28;20459;-83
2023/01/17 11:57:34;;;;;;;2.97;0.85;;;4.60;99.90;;;;;;5050412;28;20119;-83
2023/01/17 12:00:30;;;;;;;2.70;0.80;;;4.50;99.90;;;;;;5050564;28;20073;-83
2023/01/17 12:03:25;;;;;;;5.85;0.70;;;4.60;99.90;;;;;;5049085;28;20080;-83
2023/01/17 12:06:19;;;;;;;3.10;0.70;;;4.70;99.90;;;;;;5049744;28;20503;-83
2023/01/17 12:08:54;;;;;;;4.28;0.98;;;4.80;99.90;;;;;;5049714;28;20066;-83
2023/01/17 12:11:36;;;;;;;3.78;0.90;;;4.90;99.90;;;;;;5049584;28;20418;-83
2023/01/17 12:14:29;;;;;;;3.80;1.05;;;4.80;99.90;;;;;;5049691;28;20537;-83
2023/01/17 12:17:21;;;;;;;3.63;0.85;;;4.90;99.90;;;;;;5049683;28;20083;-82
2023/01/17 12:20:05;;;;;;;5.43;1.10;;;4.90;99.90;;;;;;5048952;28;20041;-83
2023/01/17 12:22:57;;;;;;;2.90;0.80;;;4.90;99.90;;;;;;5049289;28;20040;-83
2023/01/17 12:25:25;;;;;;;4.95;0.85;;;5.00;99.90;;;;;;5046574;28;20097;-83
2023/01/17 12:28:05;;;;;;;4.50;0.90;;;5.10;99.90;;;;;;5049257;28;20124;-83
2023/01/17 12:30:49;;;;;;;8.20;1.33;;;5.10;99.90;;;;;;5050032;28;20066;-82
2023/01/17 12:33:39;;;;;;;6.22;1.02;;;5.00;99.90;;;;;;5048884;28;20469;-83
2023/01/17 12:36:22;;;;;;;3.38;0.80;;;4.80;99.90;;;;;;5029507;28;20042;-82
2023/01/17 12:38:47;;;;;;;3.67;1.23;;;4.70;99.90;;;;;;5052749;28;20081;-82
2023/01/17 12:41:25;;;;;;;2.95;0.80;;;4.60;99.90;;;;;;5036221;28;20033;-83
2023/01/17 12:43:56;;;;;;;2.88;0.77;;;4.70;99.90;;;;;;5052546;28;20033;-82
2023/01/17 12:46:44;;;;;;;2.70;0.57;;;4.60;99.90;;;;;;5052391;28;20055;-82
2023/01/17 12:49:25;;;;;;;4.20;0.93;;;4.60;99.90;;;;;;5052349;28;20043;-83
2023/01/17 12:52:12;;;;;;;3.72;0.60;;;4.50;99.90;;;;;;5052884;28;20052;-83
2023/01/17 12:54:46;;;;;;;2.20;0.70;;;4.30;99.90;;;;;;5052812;28;20041;-82
2023/01/17 12:57:20;;;;;;;2.63;0.90;;;4.20;99.90;;;;;;5052581;28;20464;-82
2023/01/17 13:00:07;;;;;;;6.50;0.90;;;4.10;99.90;;;;;;5051832;28;20098;-83
2023/01/17 13:02:44;;;;;;;2.05;0.60;;;4.00;99.90;;;;;;5052117;28;20033;-83
2023/01/17 13:05:24;;;;;;;4.40;0.70;;;4.20;99.90;;;;;;5035451;28;20036;-82
2023/01/17 13:08:21;;;;;;;1.33;0.52;;;4.30;99.90;;;;;;5033970;28;20039;-83
2023/01/17 13:11:19;;;;;;;3.42;0.88;;;4.60;99.90;;;;;;5050917;28;20071;-82
2023/01/17 13:13:46;;;;;;;2.67;0.60;;;5.00;99.90;;;;;;5051066;28;20151;-83
2023/01/17 13:16:26;;;;;;;3.83;0.50;;;5.20;99.90;;;;;;5050556;28;20045;-82
2023/01/17 13:18:52;;;;;;;2.60;0.68;;;5.40;99.90;;;;;;5051213;28;20044;-82
2023/01/17 13:21:29;;;;;;;2.03;0.60;;;5.60;99.90;;;;;;5051315;28;20115;-82
2023/01/17 13:23:57;;;;;;;3.40;0.80;;;5.70;99.90;;;;;;5035275;28;20083;-82
2023/01/17 13:26:29;;;;;;;2.88;0.70;;;5.90;99.90;;;;;;5035121;28;20052;-83
2023/01/17 13:29:20;;;;;;;3.10;0.70;;;6.00;99.90;;;;;;5050339;28;20048;-82
2023/01/17 13:32:04;;;;;;;2.35;0.70;;;6.10;99.90;;;;;;5050741;28;20143;-83
2023/01/17 13:35:05;;;;;;;1.65;0.47;;;6.20;99.90;;;;;;5052062;28;20060;-81
2023/01/17 13:37:51;;;;;;;3.35;0.63;;;6.50;99.90;;;;;;5035080;28;20056;-82
2023/01/17 13:40:49;;;;;;;2.80;0.50;;;6.40;99.90;;;;;;5051625;28;20499;-82
2023/01/17 13:43:36;;;;;;;1.58;0.38;;;6.40;99.90;;;;;;5051415;28;20111;-83
2023/01/17 13:46:02;;;;;;;3.75;0.75;;;6.50;99.90;;;;;;5051687;28;20052;-82
2023/01/17 13:48:30;;;;;;;2.80;0.52;;;6.40;99.90;;;;;;5033812;28;20044;-83
2023/01/17 13:51:01;;;;;;;2.38;0.77;;;6.50;99.90;;;;;;5052147;28;20063;-82
2023/01/17 13:53:33;;;;;;;2.42;0.60;;;6.40;99.90;;;;;;5051590;28;20502;-83
2023/01/17 13:56:09;;;;;;;4.47;0.70;;;6.20;99.90;;;;;;5051829;28;20391;-83
2023/01/17 13:58:46;;;;;;;3.60;0.70;;;6.00;99.90;;;;;;5021923;28;20044;-83
2023/01/17 14:01:11;;;;;;;4.55;0.65;;;5.70;99.90;;;;;;5051661;28;20525;-83
2023/01/17 14:04:02;;;;;;;3.67;0.70;;;5.70;99.90;;;;;;5051455;28;20072;-83
2023/01/17 14:06:43;;;;;;;1.70;0.60;;;5.70;99.90;;;;;;5051398;28;20503;-82
2023/01/17 14:09:12;;;;;;;1.92;0.60;;;5.60;99.90;;;;;;5034666;28;20044;-82
2023/01/17 14:12:02;;;;;;;3.15;0.60;;;5.50;99.90;;;;;;5051620;28;20126;-82
2023/01/17 14:14:35;;;;;;;3.47;0.77;;;5.30;99.90;;;;;;5039663;28;20503;-83
2023/01/17 14:17:19;;;;;;;2.25;0.60;;;5.30;99.90;;;;;;5050128;28;20128;-83
2023/01/17 14:19:47;;;;;;;4.35;0.55;;;5.30;99.90;;;;;;5051232;28;20412;-82
2023/01/17 14:22:19;;;;;;;1.50;0.50;;;5.30;99.90;;;;;;5034450;28;20075;-82
2023/01/17 14:25:08;;;;;;;3.53;0.70;;;5.20;99.90;;;;;;5034751;28;20121;-82
2023/01/17 14:27:42;;;;;;;4.13;0.77;;;5.10;99.90;;;;;;5050808;28;20044;-82
2023/01/17 14:30:21;;;;;;;3.08;0.80;;;5.10;99.90;;;;;;5050982;28;20041;-82
2023/01/17 14:33:04;;;;;;;1.50;0.40;;;5.20;99.90;;;;;;5050929;28;20521;-82
2023/01/17 14:35:34;;;;;;;3.25;0.80;;;5.30;99.90;;;;;;5034275;28;20045;-82
2023/01/17 14:38:01;;;;;;;2.55;0.52;;;5.40;99.90;;;;;;5050745;28;20044;-82
2023/01/17 14:40:30;;;;;;;1.40;0.50;;;5.30;99.90;;;;;;5050704;28;20037;-82
2023/01/17 14:43:04;;;;;;;2.03;0.52;;;5.30;99.90;;;;;;5050971;28;20486;-82